Time;durP1;ratioP1;P1;durP2;ratioP2;P2;SDS_P1;SDS_P2;PMS_P1;PMS_P2;Temp;Humidity;BMP_temperature;BMP_pressure;BME280_temperature;BME280_humidity;BME280_pressure;Samples;Min_cycle;Max_cycle;Signal;HPM_P1;HPM_P2
2021/11/23 00:02:24;;;;;;;14.30;10.25;;;;;;;10.15;54.21;100702.27;2319116;84;25849;-78
2021/11/23 00:05:47;;;;;;;14.58;10.20;;;;;;;10.15;54.22;100700.97;2281322;84;25782;-77
2021/11/23 00:09:11;;;;;;;19.32;11.00;;;;;;;10.16;54.23;100694.06;2290087;84;25718;-84
2021/11/23 00:12:33;;;;;;;20.80;12.85;;;;;;;10.16;54.19;100689.73;2310024;84;25330;-83
2021/11/23 00:15:54;;;;;;;17.75;10.80;;;;;;;10.16;54.19;100687.13;2285661;84;25322;-76
2021/11/23 00:19:17;;;;;;;17.20;11.33;;;;;;;10.15;54.19;100682.73;2299850;83;25845;-81
2021/11/23 00:22:38;;;;;;;20.08;10.65;;;;;;;10.17;54.17;100696.70;2313387;84;25317;-77
2021/11/23 00:26:00;;;;;;;18.37;10.37;;;;;;;10.17;54.15;100695.39;2292898;84;29799;-81
2021/11/23 00:29:21;;;;;;;19.65;10.68;;;;;;;10.16;54.16;100700.15;2299527;84;25652;-81
2021/11/23 00:32:45;;;;;;;17.20;10.58;;;;;;;10.16;54.13;100700.58;2297719;85;25658;-77
2021/11/23 00:36:06;;;;;;;17.80;11.28;;;;;;;10.16;54.11;100699.27;2289604;85;25797;-76
2021/11/23 00:39:27;;;;;;;14.93;10.70;;;;;;;10.15;54.09;100703.56;2287265;82;25660;-82
2021/11/23 00:42:51;;;;;;;16.55;11.15;;;;;;;10.15;54.08;100707.48;2299808;84;25666;-82
2021/11/23 00:46:16;;;;;;;21.30;11.45;;;;;;;10.13;54.09;100715.69;2296899;84;25600;-83
2021/11/23 00:49:37;;;;;;;15.58;10.05;;;;;;;10.11;54.08;100716.05;2304354;84;25800;-77
2021/11/23 00:53:01;;;;;;;15.80;11.05;;;;;;;10.13;54.08;100718.72;2296755;84;25695;-76
2021/11/23 00:56:22;;;;;;;19.87;12.20;;;;;;;10.13;54.08;100723.92;2284851;84;25699;-82
2021/11/23 00:59:43;;;;;;;20.57;10.98;;;;;;;10.12;54.06;100710.41;2285200;85;25695;-80
2021/11/23 01:03:04;;;;;;;20.35;11.60;;;;;;;10.13;54.05;100720.02;2289322;85;25769;-78
2021/11/23 01:06:26;;;;;;;20.52;12.18;;;;;;;10.12;54.04;100707.80;2288858;84;25690;-78
2021/11/23 01:09:47;;;;;;;16.55;10.68;;;;;;;10.10;54.06;100706.47;2283898;85;25647;-77
2021/11/23 01:13:09;;;;;;;18.62;12.30;;;;;;;10.10;54.04;100693.45;2292565;84;25686;-82
2021/11/23 01:16:29;;;;;;;18.87;12.63;;;;;;;10.10;54.03;100688.66;2286117;84;26954;-79
2021/11/23 01:19:55;;;;;;;22.45;13.48;;;;;;;10.09;54.04;100684.27;2284099;84;25874;-83
2021/11/23 01:23:16;;;;;;;23.87;13.08;;;;;;;10.08;54.01;100691.20;2282593;84;25800;-81
2021/11/23 01:26:37;;;;;;;21.33;14.05;;;;;;;10.07;54.02;100682.92;2289151;84;25763;-81
2021/11/23 01:30:05;;;;;;;23.87;13.62;;;;;;;10.07;54.02;100678.14;2283333;84;25654;-82
2021/11/23 01:33:27;;;;;;;22.77;13.70;;;;;;;10.08;54.00;100672.09;2284132;84;26055;-78
2021/11/23 01:36:49;;;;;;;27.25;14.78;;;;;;;10.07;54.00;100676.84;2285522;84;25775;-77
2021/11/23 01:40:12;;;;;;;24.77;15.25;;;;;;;10.06;54.00;100676.38;2294368;84;25679;-79
2021/11/23 01:43:33;;;;;;;25.02;15.85;;;;;;;10.06;54.00;100678.56;2297610;84;25875;-77
2021/11/23 01:46:55;;;;;;;25.15;15.25;;;;;;;10.06;54.00;100682.47;2292478;84;25855;-79
2021/11/23 01:50:16;;;;;;;25.30;15.60;;;;;;;10.05;54.00;100685.89;2282431;85;25684;-82
2021/11/23 01:53:48;;;;;;;26.62;16.30;;;;;;;10.06;53.99;100690.71;2285608;84;25889;-82
2021/11/23 01:57:10;;;;;;;27.22;15.38;;;;;;;10.07;53.99;100698.98;2289415;84;25832;-83
2021/11/23 02:00:33;;;;;;;24.85;16.00;;;;;;;10.04;53.95;100688.47;2266245;84;25776;-81
2021/11/23 02:03:57;;;;;;;27.62;15.88;;;;;;;10.03;53.96;100696.70;2275777;84;25637;-81
2021/11/23 02:07:18;;;;;;;28.95;17.10;;;;;;;10.01;53.94;100710.09;2280585;85;25891;-82
2021/11/23 02:10:41;;;;;;;27.37;15.32;;;;;;;10.00;53.93;100712.66;2301187;84;26309;-81
2021/11/23 02:14:05;;;;;;;25.45;15.25;;;;;;;9.99;53.91;100719.98;2288842;85;26916;-81
2021/11/23 02:17:26;;;;;;;25.82;15.55;;;;;;;9.99;53.92;100721.28;2287562;85;25669;-80
2021/11/23 02:20:48;;;;;;;29.27;15.08;;;;;;;9.99;53.95;100717.38;2281741;84;25774;-81
2021/11/23 02:24:08;;;;;;;23.42;14.55;;;;;;;9.97;53.96;100712.56;2255385;86;25271;-82
2021/11/23 02:27:29;;;;;;;29.18;16.20;;;;;;;9.97;53.97;100720.38;2250564;85;29280;-81
2021/11/23 02:30:55;;;;;;;26.90;16.30;;;;;;;9.96;53.96;100719.91;2246324;85;31160;-79
2021/11/23 02:34:16;;;;;;;28.55;15.78;;;;;;;9.94;53.96;100723.34;2256058;85;25885;-82
2021/11/23 02:37:50;;;;;;;27.77;14.73;;;;;;;9.92;53.92;100724.11;2291744;84;30974;-81
2021/11/23 02:41:13;;;;;;;20.82;13.50;;;;;;;9.89;53.92;100728.83;2293779;84;25728;-79
2021/11/23 02:44:46;;;;;;;23.30;13.98;;;;;;;9.87;53.93;100725.28;2287537;84;25748;-79
2021/11/23 02:48:10;;;;;;;20.50;13.32;;;;;;;9.87;53.92;100729.19;2272712;84;25627;-83
2021/11/23 02:51:34;;;;;;;22.02;12.40;;;;;;;9.86;53.94;100727.43;2292784;84;25778;-77
2021/11/23 02:54:57;;;;;;;20.50;14.25;;;;;;;9.85;53.96;100716.95;2283784;85;25490;-78
2021/11/23 02:58:18;;;;;;;20.92;12.58;;;;;;;9.84;53.98;100710.86;2285561;85;25310;-76
2021/11/23 03:01:39;;;;;;;22.22;13.55;;;;;;;9.84;53.98;100716.48;2278687;84;25815;-75
2021/11/23 03:05:01;;;;;;;20.95;12.70;;;;;;;9.84;53.98;100711.28;2281302;85;25846;-77
2021/11/23 03:08:24;;;;;;;19.77;12.80;;;;;;;9.84;53.97;100703.47;2287258;84;25704;-76
2021/11/23 03:11:45;;;;;;;18.30;12.33;;;;;;;9.82;53.99;100694.33;2291774;84;25798;-77
2021/11/23 03:15:08;;;;;;;18.73;11.85;;;;;;;9.82;53.97;100698.62;2292715;84;25676;-82
2021/11/23 03:18:30;;;;;;;20.85;11.63;;;;;;;9.81;54.00;100690.34;2298881;84;25902;-77
2021/11/23 03:21:51;;;;;;;15.83;11.25;;;;;;;9.80;54.00;100692.08;2291575;84;25600;-75
2021/11/23 03:25:23;;;;;;;18.10;10.72;;;;;;;9.80;53.99;100684.27;2280392;84;25711;-84
2021/11/23 03:28:45;;;;;;;18.60;11.65;;;;;;;9.80;54.01;100671.67;2277399;84;25715;-83
2021/11/23 03:32:10;;;;;;;14.25;10.63;;;;;;;9.80;54.01;100666.45;2263114;84;26241;-83
2021/11/23 03:35:36;;;;;;;16.50;10.30;;;;;;;9.81;54.03;100665.61;2294843;82;25658;-78
2021/11/23 03:38:57;;;;;;;14.73;9.88;;;;;;;9.81;54.00;100669.52;2287795;84;25648;-76
2021/11/23 03:42:19;;;;;;;15.65;10.20;;;;;;;9.80;54.01;100672.55;2289401;84;25712;-77
2021/11/23 03:45:40;;;;;;;15.35;10.53;;;;;;;9.81;54.03;100674.30;2291872;84;26296;-81
2021/11/23 03:49:12;;;;;;;11.22;8.95;;;;;;;9.82;54.00;100661.77;2288098;84;25680;-82
2021/11/23 03:52:33;;;;;;;12.25;9.68;;;;;;;9.81;53.99;100661.28;2286234;84;25728;-78
2021/11/23 03:55:54;;;;;;;14.33;10.68;;;;;;;9.83;53.99;100659.62;2283493;85;25325;-81
2021/11/23 03:59:20;;;;;;;10.63;8.87;;;;;;;9.82;53.97;100654.35;2278756;84;30596;-81
2021/11/23 04:02:43;;;;;;;12.37;8.60;;;;;;;9.82;53.98;100649.14;2282957;85;25791;-75
2021/11/23 04:06:05;;;;;;;12.33;8.10;;;;;;;9.81;53.97;100652.59;2278266;84;25640;-76
2021/11/23 04:09:26;;;;;;;13.43;9.95;;;;;;;9.81;53.99;100657.80;2287361;85;25636;-81
2021/11/23 04:12:48;;;;;;;10.60;8.77;;;;;;;9.82;53.94;100646.54;2297657;84;30065;-81
2021/11/23 04:16:13;;;;;;;12.90;9.18;;;;;;;9.81;53.93;100636.97;2293456;84;26344;-81
2021/11/23 04:19:36;;;;;;;10.65;8.25;;;;;;;9.79;53.93;100630.43;2286187;85;25695;-77
2021/11/23 04:22:57;;;;;;;10.78;8.25;;;;;;;9.80;53.92;100630.89;2257919;86;25850;-82
2021/11/23 04:26:20;;;;;;;9.23;8.20;;;;;;;9.80;53.92;100637.39;2285934;85;26046;-77
2021/11/23 04:29:43;;;;;;;9.90;7.92;;;;;;;9.79;53.92;100631.73;2286159;84;25771;-77
2021/11/23 04:33:04;;;;;;;11.13;8.93;;;;;;;9.80;53.90;100625.67;2268058;84;28965;-81
2021/11/23 04:36:25;;;;;;;9.83;7.67;;;;;;;9.80;53.90;100633.48;2295702;84;27221;-81
2021/11/23 04:39:49;;;;;;;10.20;7.22;;;;;;;9.80;53.90;100623.08;2289791;84;25787;-81
2021/11/23 04:43:10;;;;;;;10.58;8.15;;;;;;;9.80;53.90;100624.38;2302846;84;25738;-80
2021/11/23 04:46:31;;;;;;;9.15;7.62;;;;;;;9.80;53.89;100630.01;2291470;84;25273;-82
2021/11/23 04:49:52;;;;;;;10.25;7.47;;;;;;;9.78;53.90;100628.64;2290251;85;25758;-76
2021/11/23 04:53:13;;;;;;;7.57;6.70;;;;;;;9.79;53.89;100611.33;2295587;84;29944;-76
2021/11/23 04:56:34;;;;;;;10.08;7.25;;;;;;;9.78;53.88;100610.41;2293636;84;25361;-80
2021/11/23 04:59:56;;;;;;;8.90;7.13;;;;;;;9.77;53.89;100623.40;2286728;84;29587;-80
2021/11/23 05:03:17;;;;;;;8.25;7.35;;;;;;;9.75;53.88;100620.73;2291365;83;25670;-81
2021/11/23 05:06:38;;;;;;;6.63;5.93;;;;;;;9.75;53.88;100618.55;2298817;84;29516;-76
2021/11/23 05:10:01;;;;;;;7.40;6.40;;;;;;;9.76;53.87;100616.44;2289339;85;25738;-76
2021/11/23 05:13:22;;;;;;;10.58;6.78;;;;;;;9.74;53.86;100600.75;2288411;83;25853;-82
2021/11/23 05:16:44;;;;;;;6.05;5.33;;;;;;;9.74;53.87;100607.68;2291264;84;25893;-79
2021/11/23 05:20:08;;;;;;;7.10;5.33;;;;;;;9.73;53.86;100602.89;2280010;85;25735;-76
2021/11/23 05:23:29;;;;;;;9.95;5.78;;;;;;;9.73;53.84;100596.81;2289802;86;25817;-75
2021/11/23 05:26:51;;;;;;;5.90;5.05;;;;;;;9.73;53.83;100588.58;2268787;84;25663;-82
2021/11/23 05:30:12;;;;;;;7.30;5.53;;;;;;;9.72;53.81;100586.82;2292067;84;25710;-80
2021/11/23 05:33:34;;;;;;;4.37;3.98;;;;;;;9.70;53.78;100585.87;2292040;84;25711;-80
2021/11/23 05:36:55;;;;;;;5.55;4.60;;;;;;;9.68;53.76;100579.73;2316046;85;26508;-80
2021/11/23 05:40:22;;;;;;;4.97;4.53;;;;;;;9.65;53.72;100573.13;2273524;84;25753;-81
2021/11/23 05:43:43;;;;;;;9.18;5.60;;;;;;;9.64;53.70;100589.59;2320792;84;25690;-81
2021/11/23 05:47:05;;;;;;;5.05;4.40;;;;;;;9.62;53.67;100584.36;2300598;84;25834;-76
2021/11/23 05:50:26;;;;;;;5.08;4.17;;;;;;;9.62;53.69;100575.24;2290759;83;26264;-81
2021/11/23 05:53:47;;;;;;;6.13;3.97;;;;;;;9.62;53.64;100570.45;2294072;84;29143;-78
2021/11/23 05:57:08;;;;;;;3.63;3.33;;;;;;;9.60;53.59;100563.89;2288491;84;29106;-77
2021/11/23 06:00:31;;;;;;;4.10;3.40;;;;;;;9.59;53.57;100570.36;2300742;84;31063;-78
2021/11/23 06:03:55;;;;;;;5.85;3.55;;;;;;;9.59;53.54;100583.38;2287790;84;25744;-77
2021/11/23 06:07:16;;;;;;;5.15;3.45;;;;;;;9.59;53.53;100582.08;2300369;83;26372;-81
2021/11/23 06:10:38;;;;;;;4.45;3.20;;;;;;;9.58;53.49;100579.86;2305024;83;26135;-83
2021/11/23 06:14:00;;;;;;;3.00;2.67;;;;;;;9.56;53.46;100577.66;2306145;84;25809;-81
2021/11/23 06:17:21;;;;;;;5.70;3.65;;;;;;;9.57;53.44;100576.80;2288179;84;25690;-78
2021/11/23 06:20:49;;;;;;;2.70;2.50;;;;;;;9.58;53.38;100584.19;2307907;84;25690;-83
2021/11/23 06:24:11;;;;;;;6.00;3.25;;;;;;;9.59;53.39;100579.47;2308576;84;25656;-77
2021/11/23 06:27:32;;;;;;;3.20;2.75;;;;;;;9.59;53.33;100573.84;2291046;84;25873;-78
2021/11/23 06:30:54;;;;;;;2.90;2.60;;;;;;;9.58;53.30;100563.37;2306208;84;25628;-77
2021/11/23 06:34:20;;;;;;;3.37;2.83;;;;;;;9.56;53.31;100563.34;2291983;84;25854;-78
2021/11/23 06:37:42;;;;;;;3.55;2.70;;;;;;;9.54;53.30;100548.50;2290951;84;26009;-81
2021/11/23 06:41:03;;;;;;;2.55;2.30;;;;;;;9.55;53.26;100547.66;2281867;84;26258;-80
2021/11/23 06:44:47;;;;;;;3.37;2.67;;;;;;;9.54;53.23;100542.88;2280262;84;31655;-81
2021/11/23 06:48:09;;;;;;;4.70;2.60;;;;;;;9.53;53.20;100533.73;2269086;84;25728;-81
2021/11/23 06:51:37;;;;;;;2.47;2.17;;;;;;;9.56;53.17;100535.13;2285887;84;25964;-77
2021/11/23 06:55:00;;;;;;;2.83;2.17;;;;;;;9.55;53.14;100530.34;2298059;84;25810;-77
2021/11/23 06:58:21;;;;;;;3.27;2.02;;;;;;;9.58;53.06;100527.80;2262707;85;26362;-77
2021/11/23 07:01:42;;;;;;;3.52;2.58;;;;;;;9.61;53.01;100527.90;2284468;83;26534;-78
2021/11/23 07:05:07;;;;;;;3.20;2.10;;;;;;;9.63;52.98;100525.36;2305970;84;27655;-79
2021/11/23 07:08:42;;;;;;;2.90;1.85;;;;;;;9.63;52.93;100523.64;2290534;82;26400;-78
2021/11/23 07:12:05;;;;;;;3.80;1.70;;;;;;;9.62;52.91;100508.87;2285571;84;26170;-79
2021/11/23 07:15:26;;;;;;;2.45;1.95;;;;;;;9.64;52.86;100506.30;2287025;84;26132;-77
2021/11/23 07:18:48;;;;;;;2.67;1.67;;;;;;;9.68;52.81;100514.65;2297892;82;44011;-80
2021/11/23 07:22:09;;;;;;;1.90;1.62;;;;;;;9.70;52.77;100501.27;2308534;84;25676;-79
2021/11/23 07:25:51;;;;;;;2.25;1.60;;;;;;;9.72;52.73;100492.19;2294589;84;26396;-79
2021/11/23 07:29:13;;;;;;;2.42;1.65;;;;;;;9.74;52.70;100493.12;2281480;83;25685;-80
2021/11/23 07:32:35;;;;;;;2.40;1.62;;;;;;;9.75;52.64;100490.55;2280790;84;25877;-78
2021/11/23 07:35:59;;;;;;;2.30;1.50;;;;;;;9.77;52.61;100489.31;2278236;84;25781;-80
2021/11/23 07:39:20;;;;;;;3.67;1.95;;;;;;;9.76;52.62;100491.04;2244602;86;25800;-76
2021/11/23 07:42:42;;;;;;;4.58;1.40;;;;;;;9.77;52.54;100490.62;2301255;84;25734;-80
2021/11/23 07:46:03;;;;;;;4.33;1.95;;;;;;;9.81;52.48;100493.77;2308558;84;25367;-80
2021/11/23 07:49:24;;;;;;;4.42;1.55;;;;;;;9.85;52.48;100491.70;2300562;85;26023;-82
2021/11/23 07:52:45;;;;;;;3.02;1.77;;;;;;;9.88;52.52;100470.95;2287371;85;26265;-83
2021/11/23 07:56:07;;;;;;;2.50;1.70;;;;;;;9.89;52.42;100480.56;2289270;83;29067;-82
2021/11/23 07:59:27;;;;;;;4.08;1.77;;;;;;;9.88;52.38;100478.77;2297966;84;25766;-79
2021/11/23 08:02:49;;;;;;;3.43;1.70;;;;;;;9.89;52.34;100494.45;2302585;84;29023;-82
2021/11/23 08:06:11;;;;;;;4.30;1.37;;;;;;;9.91;52.30;100489.27;2305061;83;25844;-83
2021/11/23 08:09:32;;;;;;;2.35;1.77;;;;;;;9.92;52.30;100489.33;2284607;84;25575;-82
2021/11/23 08:12:53;;;;;;;2.10;1.67;;;;;;;9.97;52.29;100485.97;2286945;84;30938;-77
2021/11/23 08:16:14;;;;;;;2.47;1.70;;;;;;;10.00;52.28;100496.47;2297984;84;29497;-82
2021/11/23 08:19:35;;;;;;;2.50;1.70;;;;;;;10.01;52.26;100509.95;2292300;84;29103;-80
2021/11/23 08:22:56;;;;;;;2.77;1.85;;;;;;;10.00;52.25;100514.28;2290360;84;25743;-78
2021/11/23 08:26:17;;;;;;;3.10;1.90;;;;;;;10.02;52.24;100519.52;2297582;84;29132;-82
2021/11/23 08:29:38;;;;;;;4.28;2.08;;;;;;;10.02;52.26;100515.19;2292537;84;25965;-77
2021/11/23 08:33:00;;;;;;;2.07;1.50;;;;;;;10.02;52.28;100511.28;2296709;84;30996;-81
2021/11/23 08:36:21;;;;;;;2.98;1.45;;;;;;;10.03;52.33;100513.06;2292725;84;25848;-80
2021/11/23 08:39:42;;;;;;;2.60;1.70;;;;;;;10.05;52.33;100505.28;2302406;84;26240;-83
2021/11/23 08:43:04;;;;;;;2.92;1.67;;;;;;;10.05;52.33;100504.86;2288712;84;25884;-80
2021/11/23 08:46:25;;;;;;;2.40;1.87;;;;;;;10.06;52.35;100509.25;2283490;84;25814;-82
2021/11/23 08:49:56;;;;;;;4.10;2.02;;;;;;;10.07;52.36;100518.82;2287902;85;25687;-82
2021/11/23 08:53:16;;;;;;;2.92;2.17;;;;;;;10.07;52.38;100511.00;2294281;84;25655;-78
2021/11/23 08:56:39;;;;;;;3.57;1.43;;;;;;;10.08;52.38;100514.06;2304683;85;31105;-83
2021/11/23 09:03:38;;;;;;;2.85;2.27;;;;;;;10.09;52.41;100506.73;2198515;88;25915;-81
2021/11/23 09:07:03;;;;;;;4.00;2.08;;;;;;;10.09;52.46;100509.34;2186913;88;25721;-83
2021/11/23 09:10:37;;;;;;;5.95;2.30;;;;;;;10.08;52.39;100501.46;2197212;88;26018;-84
2021/11/23 09:14:00;;;;;;;4.22;2.37;;;;;;;9.97;52.42;100511.59;2198714;88;25789;-84
2021/11/23 09:17:21;;;;;;;5.22;2.40;;;;;;;9.87;52.61;100513.05;2190021;89;25792;-83
2021/11/23 09:35:02;;;;;;;5.28;2.75;;;;;;;9.61;53.36;100516.19;2184930;88;32992;-84
2021/11/23 09:38:26;;;;;;;5.03;3.08;;;;;;;9.60;53.61;100529.17;2197573;88;25586;-83
2021/11/23 09:41:58;;;;;;;4.72;2.83;;;;;;;9.59;53.71;100518.31;2197092;89;25891;-82
2021/11/23 09:45:20;;;;;;;3.40;2.45;;;;;;;9.55;53.88;100507.31;2190317;89;25858;-83
2021/11/23 09:48:51;;;;;;;3.85;3.15;;;;;;;9.55;53.96;100515.13;2192559;89;26331;-85
2021/11/23 09:52:15;;;;;;;9.48;3.98;;;;;;;9.54;54.02;100519.88;2184586;88;26263;-84
2021/11/23 09:59:25;;;;;;;3.35;2.65;;;;;;;9.49;54.15;100505.86;2282895;83;26152;-83
2021/11/23 10:03:40;;;;;;;3.80;2.52;;;;;;;9.50;54.25;100503.71;2282640;83;25573;-86
2021/11/23 10:07:20;;;;;;;5.12;3.02;;;;;;;9.53;54.31;100515.52;2310920;84;25624;-81
2021/11/23 10:11:04;;;;;;;3.45;2.67;;;;;;;9.56;54.37;100513.89;2281961;84;25775;-83
2021/11/23 10:14:34;;;;;;;5.30;3.93;;;;;;;9.56;54.41;100507.80;2242498;86;25831;-84
2021/11/23 10:18:33;;;;;;;3.35;2.75;;;;;;;9.55;54.46;100513.82;2235426;86;25857;-83
2021/11/23 10:21:57;;;;;;;4.35;3.95;;;;;;;9.54;54.48;100522.05;2253403;86;25794;-81
2021/11/23 10:25:30;;;;;;;4.42;2.98;;;;;;;9.54;54.57;100529.86;2244778;86;25759;-84
2021/11/23 10:29:08;;;;;;;7.65;4.10;;;;;;;9.52;54.55;100525.44;2244715;86;26061;-83
2021/11/23 10:32:52;;;;;;;5.25;3.65;;;;;;;9.54;54.62;100522.48;2251854;86;26164;-84
2021/11/23 10:36:19;;;;;;;7.78;3.62;;;;;;;9.53;54.65;100530.70;2248328;86;25823;-83
2021/11/23 10:39:46;;;;;;;6.10;4.42;;;;;;;9.50;54.73;100522.80;2240658;86;25898;-83
2021/11/23 10:43:21;;;;;;;4.78;4.10;;;;;;;9.53;54.82;100520.72;2244704;86;25803;-84
2021/11/23 10:51:22;;;;;;;7.15;5.40;;;;;;;9.55;54.96;100526.44;2107519;92;27158;-84
2021/11/23 10:54:57;;;;;;;9.75;6.20;;;;;;;9.56;55.01;100526.02;2112731;91;25884;-83
2021/11/23 10:58:30;;;;;;;7.25;4.60;;;;;;;9.56;55.03;100525.59;2104995;92;25729;-83
2021/11/23 11:01:56;;;;;;;7.78;4.72;;;;;;;9.52;55.12;100524.14;2098262;88;26146;-83
2021/11/23 11:05:41;;;;;;;5.42;4.20;;;;;;;9.53;55.25;100523.33;2093838;92;26020;-84
2021/11/23 11:09:02;;;;;;;5.75;4.05;;;;;;;9.60;55.28;100526.56;2095397;92;25735;-84
2021/11/23 11:12:29;;;;;;;10.30;4.37;;;;;;;9.63;55.35;100530.56;2102972;91;26223;-84
2021/11/23 11:16:17;;;;;;;5.45;3.92;;;;;;;9.65;55.41;100534.08;2090610;93;26532;-84
2021/11/23 11:20:02;;;;;;;4.50;4.10;;;;;;;9.65;55.46;100528.48;2087583;92;25665;-85
2021/11/23 11:23:46;;;;;;;4.58;3.45;;;;;;;9.65;55.49;100531.47;2097581;91;26572;-85
2021/11/23 11:27:49;;;;;;;6.58;4.60;;;;;;;9.67;55.52;100529.81;2192882;86;25734;-84
2021/11/23 11:36:00;;;;;;;8.70;4.40;;;;;;;9.65;55.54;100537.98;2183693;86;25264;-83
2021/11/23 11:39:59;;;;;;;5.72;3.70;;;;;;;9.64;55.54;100546.64;2190665;87;26438;-84
2021/11/23 11:44:04;;;;;;;;;;;;;;;;;;;;;
2021/11/23 11:47:47;;;;;;;3.58;2.80;;;;;;;9.78;55.46;100551.83;2174964;88;25722;-84
2021/11/23 11:51:42;;;;;;;4.55;3.05;;;;;;;9.97;55.50;100557.17;2167663;88;26269;-84
2021/11/23 11:55:43;;;;;;;5.08;3.20;;;;;;;10.07;55.17;100554.41;2177300;88;25939;-88
2021/11/23 11:59:35;;;;;;;4.22;3.30;;;;;;;10.20;54.99;100560.85;2191209;88;25425;-88
2021/11/23 12:03:38;;;;;;;8.40;3.00;;;;;;;10.32;55.01;100565.99;2166671;88;25871;-84
2021/11/23 12:07:13;;;;;;;6.00;3.10;;;;;;;10.40;54.88;100562.31;2165808;88;25968;-87
2021/11/23 12:10:46;;;;;;;9.73;3.40;;;;;;;10.49;55.65;100565.58;2164062;87;26178;-89
2021/11/23 12:14:15;;;;;;;4.95;3.08;;;;;;;10.67;56.81;100567.80;2207085;86;25680;-89
2021/11/23 12:18:06;;;;;;;6.60;4.72;;;;;;;10.78;56.26;100563.73;2209992;87;25785;-83
2021/11/23 12:21:34;;;;;;;7.05;3.85;;;;;;;10.87;55.81;100573.11;2183574;89;25706;-81
2021/11/23 12:25:29;;;;;;;7.25;4.37;;;;;;;10.91;55.79;100581.47;2101116;93;26041;-88
2021/11/23 12:29:35;;;;;;;4.42;4.03;;;;;;;10.93;55.52;100580.19;2130117;92;25719;-85
2021/11/23 12:33:03;;;;;;;4.75;4.08;;;;;;;10.97;55.34;100588.16;2081714;92;26260;-83
2021/11/23 12:36:25;;;;;;;4.37;3.30;;;;;;;11.02;55.08;100595.66;2126168;90;25750;-81
2021/11/23 12:40:18;;;;;;;6.40;3.58;;;;;;;11.11;56.15;100598.93;2126044;90;26025;-84
2021/11/23 12:44:11;;;;;;;5.30;3.80;;;;;;;11.23;56.81;100600.94;2131360;90;25694;-89
2021/11/23 12:47:38;;;;;;;3.85;3.10;;;;;;;11.32;55.98;100602.05;2111908;90;25799;-87
2021/11/23 12:51:32;;;;;;;5.72;4.40;;;;;;;11.40;56.20;100605.27;2128807;90;25517;-84
2021/11/23 12:54:54;;;;;;;5.03;4.25;;;;;;;11.44;56.03;100608.40;2186524;88;25709;-88
2021/11/23 12:58:18;;;;;;;6.00;4.97;;;;;;;11.36;56.73;100597.78;2205315;87;25851;-89
2021/11/23 13:01:46;;;;;;;7.92;5.70;;;;;;;11.18;56.72;100600.84;2192398;87;25698;-89
2021/11/23 13:05:15;;;;;;;8.65;5.75;;;;;;;11.00;56.73;100605.19;2181749;87;26011;-86
2021/11/23 13:09:03;;;;;;;6.62;5.30;;;;;;;10.84;56.72;100608.24;2177876;88;25778;-87
2021/11/23 13:12:32;;;;;;;6.78;6.08;;;;;;;10.68;56.74;100609.55;2209075;87;26015;-80
2021/11/23 13:15:56;;;;;;;7.12;6.42;;;;;;;10.54;56.80;100617.43;2245788;87;25799;-87
2021/11/23 13:19:36;;;;;;;8.53;5.72;;;;;;;10.50;56.88;100615.58;2235740;87;25703;-86
2021/11/23 13:23:27;;;;;;;9.10;5.65;;;;;;;10.47;56.99;100626.80;2117991;90;25789;-86
2021/11/23 13:26:56;;;;;;;6.15;5.12;;;;;;;10.44;57.06;100626.72;2090532;92;25780;-84
2021/11/23 13:30:56;;;;;;;7.97;4.90;;;;;;;10.43;57.05;100638.38;2084982;93;26243;-82
2021/11/23 13:34:20;;;;;;;6.40;5.75;;;;;;;10.40;57.11;100642.69;2089816;91;25866;-82
2021/11/23 13:37:42;;;;;;;5.72;5.05;;;;;;;10.37;57.13;100651.72;2153199;90;25980;-85
2021/11/23 13:41:20;;;;;;;6.05;5.45;;;;;;;10.34;57.14;100657.27;2136940;91;26213;-85
2021/11/23 13:44:41;;;;;;;6.05;4.95;;;;;;;10.32;57.19;100655.02;2052860;94;25919;-85
2021/11/23 13:48:11;;;;;;;6.37;5.63;;;;;;;10.28;57.19;100656.66;2049109;96;29089;-84
2021/11/23 13:51:33;;;;;;;6.22;5.05;;;;;;;10.28;57.19;100657.08;1980304;98;25780;-84
2021/11/23 13:54:59;;;;;;;5.60;4.85;;;;;;;10.26;57.21;100662.66;2000893;96;25942;-86
2021/11/23 13:58:21;;;;;;;5.90;5.30;;;;;;;10.25;57.22;100663.05;2029012;96;25940;-84
2021/11/23 14:02:00;;;;;;;6.12;4.75;;;;;;;10.24;57.22;100665.19;2064554;93;26010;-83
2021/11/23 14:05:46;;;;;;;5.83;5.22;;;;;;;10.23;57.21;100671.68;2063223;93;25724;-82
2021/11/23 14:09:07;;;;;;;5.65;4.90;;;;;;;10.21;57.22;100670.31;2062498;93;25703;-84
2021/11/23 14:12:34;;;;;;;9.88;5.28;;;;;;;10.18;57.20;100673.70;2098855;89;25608;-85
2021/11/23 14:15:58;;;;;;;5.75;5.20;;;;;;;10.17;57.22;100669.77;2124051;89;25747;-85
2021/11/23 14:19:20;;;;;;;4.40;3.75;;;;;;;10.17;57.21;100672.37;2153284;89;25966;-81
2021/11/23 14:22:43;;;;;;;6.30;4.83;;;;;;;10.23;58.50;100666.47;2243481;85;25712;-79
2021/11/23 14:26:09;;;;;;;5.17;4.42;;;;;;;10.36;58.11;100668.59;2245892;86;25788;-82
2021/11/23 14:29:32;;;;;;;6.62;5.40;;;;;;;10.37;57.98;100671.27;2218857;88;26328;-84
2021/11/23 14:32:55;;;;;;;6.12;4.95;;;;;;;10.34;57.88;100675.50;2190980;88;26371;-83
2021/11/23 14:36:30;;;;;;;8.43;5.55;;;;;;;10.31;57.82;100675.41;2212784;88;25731;-80
2021/11/23 14:39:51;;;;;;;6.15;5.47;;;;;;;10.29;57.76;100676.69;2260158;85;25925;-83
2021/11/23 14:43:12;;;;;;;6.22;5.62;;;;;;;10.26;57.71;100677.89;2253672;86;26471;-82
2021/11/23 14:46:34;;;;;;;8.28;5.45;;;;;;;10.24;57.65;100680.83;2222487;88;25779;-84
2021/11/23 14:49:55;;;;;;;9.38;5.15;;;;;;;10.24;57.61;100681.25;2223949;87;25881;-82
2021/11/23 14:53:16;;;;;;;7.20;5.43;;;;;;;10.40;58.77;100679.17;2219822;87;29136;-83
2021/11/23 14:56:37;;;;;;;6.17;5.58;;;;;;;10.46;58.31;100683.69;2180113;90;30143;-84
2021/11/23 15:00:02;;;;;;;9.00;5.17;;;;;;;10.44;58.14;100681.88;2254515;86;25668;-88
2021/11/23 15:03:23;;;;;;;7.47;5.05;;;;;;;10.42;58.27;100689.63;2227517;87;25893;-84
2021/11/23 15:07:03;;;;;;;8.40;6.85;;;;;;;10.48;58.46;100686.33;2253678;86;25795;-85
2021/11/23 15:10:42;;;;;;;;;;;;;;;;;;;;;
2021/11/23 15:14:33;;;;;;;6.95;6.25;;;;;;;10.49;58.32;100691.57;2252229;85;25679;-80
2021/11/23 15:18:06;;;;;;;10.58;6.65;;;;;;;10.49;58.24;100685.48;2158088;89;25838;-82
2021/11/23 15:21:41;;;;;;;7.58;6.78;;;;;;;10.46;58.17;100698.42;2103552;90;26084;-82
2021/11/23 15:24:55;;;;;;;11.53;6.80;;;;;;;10.43;58.04;100694.42;2126827;91;25829;-84
2021/11/23 15:28:20;;;;;;;8.55;6.72;;;;;;;10.40;57.98;100702.63;2126916;92;26394;-83
2021/11/23 15:35:51;;;;;;;9.40;6.65;;;;;;;10.39;57.98;100698.27;2175292;89;26256;-85
2021/11/23 15:39:15;;;;;;;7.42;6.37;;;;;;;10.45;58.01;100700.58;2186359;89;26175;-83
2021/11/23 15:42:50;;;;;;;8.03;6.67;;;;;;;10.47;58.01;100696.30;2187931;88;25819;-84
2021/11/23 15:46:44;;;;;;;7.85;6.60;;;;;;;10.50;57.97;100701.61;2171682;89;25744;-86
2021/11/23 15:50:23;;;;;;;7.47;6.72;;;;;;;10.52;57.95;100712.94;2211831;87;26073;-84
2021/11/23 15:54:03;;;;;;;6.42;5.83;;;;;;;10.53;57.93;100709.48;2189109;87;25760;-88
2021/11/23 15:57:41;;;;;;;6.78;6.17;;;;;;;10.54;57.90;100709.97;2245587;86;26012;-92
2021/11/23 16:01:15;;;;;;;10.40;6.58;;;;;;;10.54;57.87;100714.77;2227554;87;26192;-86
2021/11/23 16:04:36;;;;;;;7.45;5.92;;;;;;;10.56;57.86;100714.41;2211087;88;25739;-79
2021/11/23 16:07:58;;;;;;;10.25;7.00;;;;;;;10.56;57.84;100720.92;2256944;85;26253;-81
2021/11/23 16:11:20;;;;;;;7.28;6.58;;;;;;;10.56;57.84;100720.92;2263406;86;25608;-82
2021/11/23 16:14:54;;;;;;;12.45;7.22;;;;;;;10.58;57.83;100727.47;2250845;85;25919;-81
2021/11/23 16:18:18;;;;;;;6.55;5.87;;;;;;;10.58;57.80;100732.25;2218303;86;25761;-85
2021/11/23 16:21:39;;;;;;;6.92;6.30;;;;;;;10.58;57.82;100733.56;2274377;84;25765;-87
2021/11/23 16:25:01;;;;;;;6.75;5.70;;;;;;;10.60;57.77;100738.84;2280536;85;26231;-83
2021/11/23 16:28:31;;;;;;;7.90;7.10;;;;;;;10.60;57.74;100744.05;2284102;84;25997;-83
2021/11/23 16:31:52;;;;;;;;;;;;;;;10.60;57.75;100743.62;2189134;88;25693;-81
2021/11/23 16:35:24;;;;;;;6.75;5.42;;;;;;;10.60;57.71;100741.44;2177052;84;29984;-82
2021/11/23 16:38:45;;;;;;;6.92;6.22;;;;;;;10.59;57.73;100747.47;2168061;88;25455;-80
2021/11/23 16:42:07;;;;;;;7.62;6.92;;;;;;;10.59;57.68;100752.69;2208758;88;25888;-83